^^
B2 Weather Station Historical Data
Daily Summary for December 13, 2018 Units:  English    Metric   Both
Daily Weekly Monthly Yearly Custom
  High: Low: Average:
Temperature: 43.1 °F 23.8 °F 34.4 °F
Dew Point: 40.3 °F 21.3 °F 32.2 °F
Humidity: 95% 84% 92%
Wind Speed: 8.1mph 0mph 1.9mph
Wind Gust: 6.4mph - -
Wind- - ESE
Pressure: 30.12 in 30.01 in -
Precipitation: 0.34 in    
Historical Graphs
 
 
Tabular Data for December 13, 2018
Time Temperature Dew Point Pressure Wind Wind Speed Wind Gust Humidity Rainfall Rate (Hourly) solar
00:04 29.3 °F 25.1 °F 30.01 in Calm     84% 0 in 0.00 W/m2
00:09 29 °F 24.8 °F 30.01 in Calm     84% 0 in 0.00 W/m2
00:14 28.7 °F 24.5 °F 30.01 in Calm     84% 0 in 0.00 W/m2
00:19 28.4 °F 24.5 °F 30.01 in West 2.3 mph 0.2 mph 85% 0 in 0.00 W/m2
00:24 28.3 °F 24.4 °F 30.01 in SW 2 mph 0.6 mph 85% 0 in 0.00 W/m2
00:29 28.3 °F 24.6 °F 30.01 in SSW 3.5 mph 1.9 mph 86% 0 in 0.00 W/m2
00:34 28.3 °F 24.9 °F 30.01 in SSW 2.3 mph   87% 0 in 0.00 W/m2
00:39 28.3 °F 24.9 °F 30.01 in SSW 1.2 mph 0.2 mph 87% 0 in 0.00 W/m2
00:44 28.2 °F 24.8 °F 30.01 in SSW 1.2 mph   87% 0 in 0.00 W/m2
00:49 28.1 °F 24.7 °F 30.01 in SSW 1 mph   87% 0 in 0.00 W/m2
00:54 28.1 °F 25 °F 30.01 in Calm     88% 0 in 0.00 W/m2
00:59 28.1 °F 25 °F 30.02 in SSW 1.2 mph   88% 0 in 0.00 W/m2
01:04 28.1 °F 25 °F 30.02 in Calm   0.1 mph 88% 0 in 0.00 W/m2
01:09 28.1 °F 25 °F 30.02 in Calm     88% 0 in 0.00 W/m2
01:14 27.9 °F 24.5 °F 30.02 in Calm     87% 0 in 0.00 W/m2
01:19 27.4 °F 24 °F 30.02 in Calm     87% 0 in 0.00 W/m2
01:24 27.2 °F 23.8 °F 30.02 in Calm     87% 0 in 0.00 W/m2
01:29 27.3 °F 24.2 °F 30.02 in Calm     88% 0 in 0.00 W/m2
01:34 27.5 °F 24.7 °F 30.02 in Calm     89% 0 in 0.00 W/m2
01:39 27.6 °F 24.8 °F 30.02 in Calm     89% 0 in 0.00 W/m2
01:44 27.5 °F 24.4 °F 30.02 in Calm     88% 0 in 0.00 W/m2
01:49 27.3 °F 24.2 °F 30.03 in Calm     88% 0 in 0.00 W/m2
01:54 27 °F 23.6 °F 30.03 in Calm     87% 0 in 0.00 W/m2
01:59 26.8 °F 23.7 °F 30.03 in Calm     88% 0 in 0.00 W/m2
02:04 26.8 °F 23.7 °F 30.03 in Calm     88% 0 in 0.00 W/m2
02:09 26.9 °F 24.1 °F 30.03 in Calm     89% 0 in 0.00 W/m2
02:14 27 °F 24.2 °F 30.03 in Calm     89% 0 in 0.00 W/m2
02:19 27 °F 24.2 °F 30.03 in Calm     89% 0 in 0.00 W/m2
02:24 27 °F 24.2 °F 30.03 in Calm     89% 0 in 0.00 W/m2
02:29 27 °F 24.2 °F 30.04 in Calm     89% 0 in 0.00 W/m2
02:34 26.6 °F 23.5 °F 30.04 in SSW 2 mph 1.1 mph 88% 0 in 0.00 W/m2
02:39 26.3 °F 23.5 °F 30.04 in SSW 2.3 mph 1.3 mph 89% 0 in 0.00 W/m2
02:44 26.1 °F 23.3 °F 30.04 in SSW 1.2 mph   89% 0 in 0.00 W/m2
02:49 25.9 °F 23.1 °F 30.04 in Calm     89% 0 in 0.00 W/m2
02:54 25.6 °F 22.8 °F 30.04 in Calm     89% 0 in 0.00 W/m2
02:59 25.4 °F 22.6 °F 30.04 in Calm     89% 0 in 0.00 W/m2
03:04 25.2 °F 22.4 °F 30.04 in Calm     89% 0 in 0.00 W/m2
03:09 25.3 °F 22.8 °F 30.04 in Calm     90% 0 in 0.00 W/m2
03:14 25.3 °F 22.8 °F 30.04 in Calm     90% 0 in 0.00 W/m2
03:19 25.3 °F 22.8 °F 30.04 in Calm     90% 0 in 0.00 W/m2
03:24 25.4 °F 22.9 °F 30.04 in Calm     90% 0 in 0.00 W/m2
03:29 25.5 °F 23 °F 30.04 in Calm     90% 0 in 0.00 W/m2
03:34 25.6 °F 23.1 °F 30.04 in SSW 2.3 mph 1.1 mph 90% 0 in 0.00 W/m2
03:39 25.6 °F 23.1 °F 30.05 in SSW 2.3 mph 1.6 mph 90% 0 in 0.00 W/m2
03:44 25.6 °F 23.1 °F 30.05 in SSW 1.2 mph   90% 0 in 0.00 W/m2
03:49 25.4 °F 22.9 °F 30.05 in SSW 2 mph 0.8 mph 90% 0 in 0.00 W/m2
03:54 25.3 °F 23 °F 30.05 in Calm     91% 0 in 0.00 W/m2
03:59 25.2 °F 22.9 °F 30.06 in Calm     91% 0 in 0.00 W/m2
04:04 25 °F 22.5 °F 30.06 in Calm     90% 0 in 0.00 W/m2
04:09 24.8 °F 22.5 °F 30.06 in SSW 2.3 mph 0.8 mph 91% 0 in 0.00 W/m2
04:14 24.7 °F 22.4 °F 30.07 in South 2.3 mph 0.6 mph 91% 0 in 0.00 W/m2
04:19 24.7 °F 22.4 °F 30.06 in South 1.2 mph   91% 0 in 0.00 W/m2
04:24 24.6 °F 22.3 °F 30.06 in Calm     91% 0 in 0.00 W/m2
04:29 24.6 °F 22.3 °F 30.07 in Calm     91% 0 in 0.00 W/m2
04:34 24.6 °F 22.3 °F 30.07 in Calm     91% 0 in 0.00 W/m2
04:39 24.7 °F 22.4 °F 30.07 in Calm     91% 0 in 0.00 W/m2
04:44 24.8 °F 22.8 °F 30.07 in Calm     92% 0 in 0.00 W/m2
04:49 24.7 °F 22.4 °F 30.07 in Calm     91% 0 in 0.00 W/m2
04:54 24.9 °F 22.6 °F 30.07 in Calm     91% 0 in 0.00 W/m2
04:59 25.1 °F 23.1 °F 30.07 in Calm     92% 0 in 0.00 W/m2
05:04 25.2 °F 22.9 °F 30.07 in Calm     91% 0 in 0.00 W/m2
05:09 25.2 °F 22.9 °F 30.07 in Calm     91% 0 in 0.00 W/m2
05:14 25.2 °F 22.9 °F 30.07 in South 1.2 mph 0.7 mph 91% 0 in 0.00 W/m2
05:19 24.9 °F 22.4 °F 30.07 in South 1.2 mph 0.5 mph 90% 0 in 0.00 W/m2
05:24 24.4 °F 21.9 °F 30.07 in ESE 2.3 mph 1.2 mph 90% 0 in 0.00 W/m2
05:29 24.3 °F 22.1 °F 30.07 in Calm     91% 0 in 0.00 W/m2
05:34 24.3 °F 22.1 °F 30.07 in Calm     91% 0 in 0.00 W/m2
05:39 24.2 °F 22 °F 30.08 in East 3.5 mph 0.5 mph 91% 0 in 0.00 W/m2
05:44 24.2 °F 22 °F 30.08 in Calm     91% 0 in 0.00 W/m2
05:49 24.1 °F 21.9 °F 30.08 in Calm     91% 0 in 0.00 W/m2
05:54 24 °F 21.8 °F 30.07 in East 2.3 mph 2.2 mph 91% 0 in 0.00 W/m2
05:59 23.8 °F 21.6 °F 30.08 in Calm     91% 0 in 0.00 W/m2
06:04 23.9 °F 21.7 °F 30.08 in ESE 1.2 mph   91% 0 in 0.00 W/m2
06:09 24 °F 22 °F 30.08 in Calm     92% 0 in 0.00 W/m2
06:14 24.1 °F 22.1 °F 30.09 in Calm     92% 0 in 0.00 W/m2
06:19 24.2 °F 22.2 °F 30.09 in Calm     92% 0 in 0.00 W/m2
06:24 24.2 °F 22 °F 30.09 in Calm     91% 0 in 0.00 W/m2
06:29 23.8 °F 21.3 °F 30.09 in Calm     90% 0 in 0.00 W/m2
06:34 23.8 °F 21.6 °F 30.09 in Calm     91% 0 in 0.00 W/m2
06:39 24 °F 21.8 °F 30.09 in Calm     91% 0 in 0.00 W/m2
06:44 24.1 °F 22.1 °F 30.09 in Calm     92% 0 in 0.00 W/m2
06:49 24.2 °F 22.2 °F 30.09 in Calm     92% 0 in 0.00 W/m2
06:54 24.2 °F 22 °F 30.09 in Calm     91% 0 in 0.00 W/m2
06:59 24.2 °F 22 °F 30.09 in Calm     91% 0 in 0.00 W/m2
07:04 24.2 °F 22 °F 30.10 in Calm     91% 0 in 0.00 W/m2
07:09 24.3 °F 22.3 °F 30.09 in Calm     92% 0 in 5.00 W/m2
07:14 24.4 °F 22.4 °F 30.10 in Calm     92% 0 in 7.00 W/m2
07:19 24.5 °F 22.5 °F 30.10 in Calm     92% 0 in 11.00 W/m2
07:24 24.7 °F 22.7 °F 30.10 in Calm     92% 0 in 14.00 W/m2
07:29 25 °F 23 °F 30.10 in Calm     92% 0 in 18.00 W/m2
07:34 25.2 °F 23.2 °F 30.11 in Calm     92% 0 in 23.00 W/m2
07:39 25.7 °F 23.7 °F 30.11 in Calm     92% 0 in 30.00 W/m2
07:44 26.1 °F 24.1 °F 30.10 in Calm     92% 0 in 42.00 W/m2
07:49 26.4 °F 24.4 °F 30.11 in ESE 1.2 mph 0.2 mph 92% 0 in 53.00 W/m2
07:54 26.9 °F 24.9 °F 30.11 in Calm     92% 0 in 63.00 W/m2
07:59 27.5 °F 25.7 °F 30.11 in Calm     93% 0 in 74.00 W/m2
08:04 28 °F 26.2 °F 30.11 in Calm     93% 0 in 88.00 W/m2
08:09 28.4 °F 26.6 °F 30.11 in Calm     93% 0 in 86.00 W/m2
08:14 28.6 °F 26.6 °F 30.11 in Calm     92% 0 in 113.00 W/m2
08:19 29.2 °F 27.4 °F 30.11 in Calm     93% 0 in 132.00 W/m2
08:24 29.7 °F 27.9 °F 30.11 in East 1 mph 0.1 mph 93% 0 in 116.00 W/m2
08:29 30 °F 28.2 °F 30.11 in East 2.3 mph 0.5 mph 93% 0 in 148.00 W/m2
08:34 30.1 °F 28.3 °F 30.11 in East 2.3 mph 0.6 mph 93% 0 in 141.00 W/m2
08:39 30.3 °F 28.3 °F 30.11 in ESE 2.3 mph 0.5 mph 92% 0 in 105.00 W/m2
08:44 30.3 °F 28.3 °F 30.11 in ESE 2.3 mph 0.6 mph 92% 0 in 156.00 W/m2
08:49 30.6 °F 28.6 °F 30.11 in ESE 2.3 mph 0.8 mph 92% 0 in 192.00 W/m2
08:54 31.1 °F 29 °F 30.11 in SE 3.5 mph 1.8 mph 92% 0 in 195.00 W/m2
08:59 31.5 °F 29.4 °F 30.11 in ESE 3.5 mph 2.9 mph 92% 0 in 220.00 W/m2
09:04 31.9 °F 29.8 °F 30.11 in East 3 mph 1.8 mph 92% 0 in 237.00 W/m2
09:09 32.2 °F 29.9 °F 30.11 in SE 5 mph 1.9 mph 91% 0 in 241.00 W/m2
09:14 32.6 °F 30.3 °F 30.11 in ESE 4 mph 3.7 mph 91% 0 in 239.00 W/m2
09:19 32.6 °F 30 °F 30.11 in SE 4.6 mph 0.8 mph 90% 0 in 120.00 W/m2
09:24 32.6 °F 30.3 °F 30.11 in SE 3.5 mph 1.2 mph 91% 0 in 102.00 W/m2
09:29 32.7 °F 30.4 °F 30.12 in SE 3.5 mph 2.3 mph 91% 0 in 105.00 W/m2
09:34 32.9 °F 30.6 °F 30.12 in ESE 3.5 mph 1.7 mph 91% 0 in 123.00 W/m2
09:39 33.1 °F 31 °F 30.11 in ESE 3.5 mph 1.4 mph 92% 0 in 104.00 W/m2
09:44 33.4 °F 31.3 °F 30.11 in SE 3.5 mph 0.5 mph 92% 0 in 111.00 W/m2
09:49 33.8 °F 31.7 °F 30.11 in SE 5 mph 3.4 mph 92% 0 in 100.00 W/m2
09:54 34.2 °F 32.1 °F 30.11 in ESE 7 mph 2.4 mph 92% 0 in 120.00 W/m2
09:59 34.5 °F 32.4 °F 30.11 in SE 4 mph 1.2 mph 92% 0 in 111.00 W/m2
10:04 34.7 °F 32.6 °F 30.11 in SE 3.5 mph 1.4 mph 92% 0 in 104.00 W/m2
10:09 35 °F 32.9 °F 30.11 in ESE 3.5 mph 1.8 mph 92% 0 in 113.00 W/m2
10:14 35.2 °F 33.1 °F 30.11 in SE 4.6 mph 1.6 mph 92% 0 in 98.00 W/m2
10:19 35.5 °F 33.4 °F 30.11 in SSE 5.8 mph 3.2 mph 92% 0 in 91.00 W/m2
10:24 35.8 °F 33.7 °F 30.11 in SE 4.6 mph 2.2 mph 92% 0 in 102.00 W/m2
10:29 36.1 °F 34.3 °F 30.11 in SE 3.5 mph 0.7 mph 93% 0 in 121.00 W/m2
10:34 36.4 °F 34.6 °F 30.10 in SE 3.5 mph 1 mph 93% 0 in 135.00 W/m2
10:39 36.9 °F 35.1 °F 30.10 in SE 3.5 mph 2 mph 93% 0 in 135.00 W/m2
10:44 37.2 °F 35.4 °F 30.10 in ESE 3.5 mph 2.1 mph 93% 0 in 244.00 W/m2
10:49 37.7 °F 35.9 °F 30.09 in ESE 3.5 mph 1 mph 93% 0 in 151.00 W/m2
10:54 38.1 °F 36.3 °F 30.09 in SE 2.3 mph 1.1 mph 93% 0 in 181.00 W/m2
10:59 38.5 °F 36.7 °F 30.09 in ESE 4.6 mph 2.8 mph 93% 0 in 151.00 W/m2
11:04 38.8 °F 36.9 °F 30.09 in SE 1.2 mph   93% 0 in 139.00 W/m2
11:09 39.1 °F 37.2 °F 30.09 in Calm     93% 0 in 174.00 W/m2
11:14 39.3 °F 37.4 °F 30.09 in ESE 3.5 mph 1.3 mph 93% 0 in 142.00 W/m2
11:19 39.5 °F 37.4 °F 30.09 in ESE 4 mph 2.2 mph 92% 0 in 132.00 W/m2
11:24 39.6 °F 37.5 °F 30.09 in ESE 4 mph 2.7 mph 92% 0 in 178.00 W/m2
11:29 39.8 °F 37.7 °F 30.09 in ESE 3.5 mph 0.5 mph 92% 0 in 139.00 W/m2
11:34 39.8 °F 37.4 °F 30.09 in East 3.5 mph 0.7 mph 91% 0 in 265.00 W/m2
11:39 40.4 °F 38.3 °F 30.08 in ESE 4.6 mph 2.8 mph 92% 0 in 127.00 W/m2
11:45 40.5 °F 38.1 °F 30.08 in East 3.5 mph   91% 0 in 146.00 W/m2
11:49 40.7 °F 38.3 °F 30.08 in ESE 3.5 mph 0.6 mph 91% 0 in 167.00 W/m2
11:54 41.1 °F 38.7 °F 30.08 in Calm     91% 0 in 211.00 W/m2
11:59 41.5 °F 39.1 °F 30.08 in ESE 2.3 mph   91% 0 in 171.00 W/m2
12:04 41.6 °F 38.9 °F 30.09 in Calm     90% 0 in 93.00 W/m2
12:09 41.7 °F 39 °F 30.09 in Calm     90% 0 in 76.00 W/m2
12:14 41.8 °F 39.1 °F 30.09 in Calm     90% 0 in 67.00 W/m2
12:19 41.8 °F 38.8 °F 30.09 in Calm     89% 0 in 63.00 W/m2
12:24 41.7 °F 38.7 °F 30.08 in Calm     89% 0 in 65.00 W/m2
12:29 41.6 °F 38.6 °F 30.08 in Calm     89% 0 in 98.00 W/m2
12:34 41.6 °F 38.9 °F 30.08 in Calm     90% 0 in 144.00 W/m2
12:39 41.7 °F 39 °F 30.08 in East 3 mph 0.5 mph 90% 0 in 79.00 W/m2
12:44 41.7 °F 39 °F 30.09 in Calm     90% 0 in 95.00 W/m2
12:49 41.8 °F 39.1 °F 30.09 in East 3.5 mph 2.3 mph 90% 0 in 134.00 W/m2
12:54 42 °F 39.3 °F 30.09 in East 6 mph 2.9 mph 90% 0 in 127.00 W/m2
12:59 42.2 °F 39.5 °F 30.09 in East 6 mph 3.8 mph 90% 0 in 127.00 W/m2
13:04 42.3 °F 39.3 °F 30.09 in East 4.6 mph 2.5 mph 89% 0 in 88.00 W/m2
13:09 42.3 °F 39.3 °F 30.08 in East 5.8 mph 3.2 mph 89% 0 in 83.00 W/m2
13:14 42.3 °F 39.3 °F 30.07 in East 4.6 mph 4.3 mph 89% 0 in 76.00 W/m2
13:19 42.4 °F 39.7 °F 30.07 in East 7 mph 3.8 mph 90% 0 in 86.00 W/m2
13:24 42.4 °F 39.4 °F 30.07 in East 8.1 mph 3.2 mph 89% 0 in 70.00 W/m2
13:29 42.4 °F 39.4 °F 30.07 in East 5.8 mph 2.7 mph 89% 0 in 97.00 W/m2
13:34 42.6 °F 39.9 °F 30.07 in East 8.1 mph 5.4 mph 90% 0 in 199.00 W/m2
13:39 43 °F 40.3 °F 30.07 in ESE 6.9 mph 3.9 mph 90% 0 in 104.00 W/m2
13:44 43.1 °F 40.1 °F 30.07 in East 6.9 mph 4.9 mph 89% 0 in 104.00 W/m2
13:49 43.1 °F 40.1 °F 30.07 in East 8.1 mph 4.7 mph 89% 0 in 90.00 W/m2
13:54 43 °F 40 °F 30.07 in ENE 6 mph 3.7 mph 89% 0 in 74.00 W/m2
13:59 42.9 °F 39.9 °F 30.07 in East 4.6 mph 3.4 mph 89% 0 in 40.00 W/m2
14:04 42.8 °F 39.5 °F 30.07 in East 6.9 mph 3.5 mph 88% 0 in 33.00 W/m2
14:09 42.5 °F 39.5 °F 30.07 in ESE 6.9 mph 4 mph 89% 0 in 39.00 W/m2
14:14 42.4 °F 39.4 °F 30.07 in ENE 5.8 mph 5 mph 89% 0 in 39.00 W/m2
14:19 42.3 °F 39.3 °F 30.07 in East 7 mph 5 mph 89% 0 in 30.00 W/m2
14:24 42.3 °F 39.3 °F 30.07 in East 3.5 mph 2.3 mph 89% 0 in 26.00 W/m2
14:29 42.2 °F 39.2 °F 30.07 in ENE 5.8 mph 2.7 mph 89% 0 in 21.00 W/m2
14:34 42.1 °F 39.1 °F 30.08 in East 5.8 mph 3.3 mph 89% 0 in 19.00 W/m2
14:39 42 °F 39 °F 30.08 in East 4.6 mph 1 mph 89% 0 in 16.00 W/m2
14:44 41.8 °F 38.8 °F 30.08 in ESE 3.5 mph 1.3 mph 89% 0 in 14.00 W/m2
14:49 41.7 °F 38.7 °F 30.08 in East 4.6 mph 3.9 mph 89% 0 in 12.00 W/m2
14:54 41.6 °F 38.9 °F 30.08 in East 7 mph 5.9 mph 90% 0 in 9.00 W/m2
14:59 41.6 °F 38.9 °F 30.08 in East 6.9 mph 3.2 mph 90% 0 in 7.00 W/m2
15:04 41.5 °F 38.8 °F 30.08 in East 4.6 mph 0.9 mph 90% 0 in 7.00 W/m2
15:09 41.4 °F 38.7 °F 30.08 in East 4.6 mph 3.1 mph 90% 0 in 5.00 W/m2
15:14 41.3 °F 38.6 °F 30.08 in East 6.9 mph 1.3 mph 90% 0 in 0.00 W/m2
15:19 41.1 °F 38.4 °F 30.09 in East 3.5 mph 2.1 mph 90% 0 in 0.00 W/m2
15:24 40.8 °F 38.4 °F 30.09 in Calm     91% 0 in 5.00 W/m2
15:29 40.7 °F 38.3 °F 30.09 in Calm     91% 0 in 7.00 W/m2
15:34 40.6 °F 38.5 °F 30.09 in Calm     92% 0 in 7.00 W/m2
15:39 40.4 °F 38.3 °F 30.09 in Calm     92% 0 in 7.00 W/m2
15:44 40.3 °F 38.2 °F 30.09 in East 4.6 mph 2.9 mph 92% 0 in 5.00 W/m2
15:49 40.2 °F 38.1 °F 30.08 in East 4.6 mph 2.6 mph 92% 0 in 5.00 W/m2
15:54 40.1 °F 38.2 °F 30.08 in East 5 mph 3.2 mph 93% 0 in 0.00 W/m2
15:59 40 °F 38.1 °F 30.08 in East 6.9 mph 4.8 mph 93% 0 in 0.00 W/m2
16:04 39.8 °F 37.9 °F 30.08 in East 5.8 mph 4 mph 93% 0 in 0.00 W/m2
16:09 39.8 °F 37.9 °F 30.08 in East 5.8 mph 4.2 mph 93% 0 in 0.00 W/m2
16:14 39.8 °F 38.2 °F 30.08 in East 5.8 mph 2.6 mph 94% 0 in 0.00 W/m2
16:19 39.7 °F 38.1 °F 30.08 in East 7 mph 2.7 mph 94% 0 in 0.00 W/m2
16:24 39.6 °F 38 °F 30.09 in East 3.5 mph   94% 0 in 0.00 W/m2
16:29 39.5 °F 37.9 °F 30.09 in East 4.6 mph 1.5 mph 94% 0 in 0.00 W/m2
16:34 39.4 °F 37.8 °F 30.09 in East 2 mph 2.1 mph 94% 0.01 in 0.00 W/m2
16:39 39.4 °F 37.8 °F 30.09 in Calm     94% 0.01 in 0.00 W/m2
16:44 39.4 °F 37.8 °F 30.09 in Calm     94% 0.01 in 0.00 W/m2
16:49 39.2 °F 37.6 °F 30.09 in Calm     94% 0.02 in 0.00 W/m2
16:54 39.2 °F 37.6 °F 30.10 in Calm     94% 0.03 in 0.00 W/m2
16:59 39.2 °F 37.6 °F 30.09 in Calm   0.3 mph 94% 0.03 in 0.00 W/m2
17:04 39.2 °F 37.6 °F 30.10 in Calm     94% 0.03 in 0.00 W/m2
17:09 39.2 °F 37.6 °F 30.10 in ESE 3.5 mph   94% 0.03 in 0.00 W/m2
17:14 39.2 °F 37.6 °F 30.09 in ESE 2.3 mph 0.3 mph 94% 0.03 in 0.00 W/m2
17:19 39.1 °F 37.5 °F 30.10 in ESE 3.5 mph 1.3 mph 94% 0.03 in 0.00 W/m2
17:24 39.1 °F 37.5 °F 30.09 in ESE 5.8 mph 2.8 mph 94% 0.03 in 0.00 W/m2
17:29 39 °F 37.4 °F 30.09 in East 4.6 mph 2.9 mph 94% 0.03 in 0.00 W/m2
17:34 39.1 °F 37.5 °F 30.09 in East 5 mph 3.4 mph 94% 0.03 in 0.00 W/m2
17:39 39.1 °F 37.5 °F 30.09 in East 4.6 mph 2.7 mph 94% 0.03 in 0.00 W/m2
17:44 39.1 °F 37.5 °F 30.09 in ESE 5.8 mph 6.4 mph 94% 0.03 in 0.00 W/m2
17:49 39.1 °F 37.5 °F 30.09 in East 6 mph 3.7 mph 94% 0.02 in 0.00 W/m2
17:54 39.2 °F 37.6 °F 30.09 in East 5.8 mph 3.5 mph 94% 0.01 in 0.00 W/m2
17:59 39.2 °F 37.6 °F 30.09 in East 8.1 mph 4.2 mph 94% 0.01 in 0.00 W/m2
18:04 39.2 °F 37.6 °F 30.09 in East 4.6 mph 2.1 mph 94% 0.02 in 0.00 W/m2
18:09 39.2 °F 37.6 °F 30.09 in East 4.6 mph 3.4 mph 94% 0.02 in 0.00 W/m2
18:14 39.2 °F 37.6 °F 30.10 in ESE 4.6 mph 3.9 mph 94% 0.02 in 0.00 W/m2
18:19 39.2 °F 37.6 °F 30.10 in East 4.6 mph 3.4 mph 94% 0.02 in 0.00 W/m2
18:24 39.2 °F 37.6 °F 30.10 in East 3.5 mph 1.5 mph 94% 0.03 in 0.00 W/m2
18:29 39.1 °F 37.5 °F 30.09 in East 4.6 mph 1.6 mph 94% 0.03 in 0.00 W/m2
18:34 39.1 °F 37.5 °F 30.09 in ESE 4.6 mph 0.3 mph 94% 0.02 in 0.00 W/m2
18:39 39.1 °F 37.5 °F 30.09 in East 3.5 mph 2 mph 94% 0.02 in 0.00 W/m2
18:44 39.1 °F 37.5 °F 30.09 in East 7 mph 4.4 mph 94% 0.02 in 0.00 W/m2
18:49 39.1 °F 37.5 °F 30.09 in East 3.5 mph 3.5 mph 94% 0.02 in 0.00 W/m2
18:54 39.2 °F 37.6 °F 30.09 in East 4.6 mph 3 mph 94% 0.03 in 0.00 W/m2
18:59 39.2 °F 37.6 °F 30.09 in East 2 mph 0.2 mph 94% 0.03 in 0.00 W/m2
19:04 39.2 °F 37.6 °F 30.09 in East 4.6 mph 2.7 mph 94% 0.02 in 0.00 W/m2
19:09 39.2 °F 37.6 °F 30.09 in East 4.6 mph 2.9 mph 94% 0.02 in 0.00 W/m2
19:14 39.2 °F 37.6 °F 30.09 in East 2.3 mph   94% 0.02 in 0.00 W/m2
19:19 39.2 °F 37.6 °F 30.09 in ESE 3.5 mph 0.6 mph 94% 0.02 in 0.00 W/m2
19:24 39.2 °F 37.6 °F 30.09 in Calm     94% 0.01 in 0.00 W/m2
19:29 39.1 °F 37.5 °F 30.09 in Calm     94% 0.01 in 0.00 W/m2
19:34 39.1 °F 37.5 °F 30.09 in Calm     94% 0.02 in 0.00 W/m2
19:39 39 °F 37.7 °F 30.09 in Calm     95% 0.02 in 0.00 W/m2
19:44 39 °F 37.7 °F 30.09 in Calm     95% 0.02 in 0.00 W/m2
19:49 39 °F 37.7 °F 30.09 in Calm     95% 0.03 in 0.00 W/m2
19:54 39 °F 37.7 °F 30.09 in Calm     95% 0.02 in 0.00 W/m2
19:59 39 °F 37.7 °F 30.09 in Calm     95% 0.03 in 0.00 W/m2
20:04 39 °F 37.7 °F 30.09 in Calm     95% 0.03 in 0.00 W/m2
20:10 38.9 °F 37.6 °F 30.09 in Calm     95% 0.03 in 0.00 W/m2
20:15 38.9 °F 37.6 °F 30.09 in Calm     95% 0.04 in 0.00 W/m2
20:19 38.9 °F 37.6 °F 30.09 in Calm     95% 0.04 in 0.00 W/m2
20:24 38.9 °F 37.3 °F 30.09 in Calm     94% 0.05 in 0.00 W/m2
20:29 38.9 °F 37.6 °F 30.09 in Calm     95% 0.06 in 0.00 W/m2
20:34 38.9 °F 37.6 °F 30.09 in Calm     95% 0.06 in 0.00 W/m2
20:39 39 °F 37.7 °F 30.09 in Calm     95% 0.07 in 0.00 W/m2
20:44 39 °F 37.7 °F 30.09 in Calm     95% 0.08 in 0.00 W/m2
20:49 39.1 °F 37.8 °F 30.09 in Calm     95% 0.08 in 0.00 W/m2
20:54 39.1 °F 37.8 °F 30.09 in Calm     95% 0.09 in 0.00 W/m2
20:59 39.2 °F 37.9 °F 30.10 in Calm     95% 0.09 in 0.00 W/m2
21:04 39.2 °F 37.9 °F 30.10 in Calm     95% 0.1 in 0.00 W/m2
21:09 39.2 °F 37.9 °F 30.10 in Calm     95% 0.11 in 0.00 W/m2
21:14 39.2 °F 37.9 °F 30.10 in Calm     95% 0.11 in 0.00 W/m2
21:19 39.2 °F 37.9 °F 30.10 in Calm     95% 0.12 in 0.00 W/m2
21:24 39.2 °F 37.9 °F 30.10 in Calm     95% 0.12 in 0.00 W/m2
21:29 39.3 °F 37.7 °F 30.10 in Calm     94% 0.12 in 0.00 W/m2
21:34 39.3 °F 38 °F 30.10 in Calm     95% 0.12 in 0.00 W/m2
21:39 39.2 °F 37.9 °F 30.10 in Calm     95% 0.12 in 0.00 W/m2
21:45 39.1 °F 37.8 °F 30.10 in Calm     95% 0.11 in 0.00 W/m2
21:49 39 °F 37.7 °F 30.10 in Calm     95% 0.11 in 0.00 W/m2
21:54 39 °F 37.7 °F 30.10 in Calm     95% 0.11 in 0.00 W/m2
21:59 39 °F 37.7 °F 30.10 in Calm     95% 0.1 in 0.00 W/m2
22:04 38.9 °F 37.6 °F 30.10 in Calm     95% 0.1 in 0.00 W/m2
22:10 38.9 °F 37.6 °F 30.10 in Calm     95% 0.1 in 0.00 W/m2
22:14 38.9 °F 37.3 °F 30.10 in Calm     94% 0.1 in 0.00 W/m2
22:19 38.9 °F 37.3 °F 30.10 in Calm     94% 0.09 in 0.00 W/m2
22:24 38.9 °F 37.3 °F 30.10 in Calm     94% 0.09 in 0.00 W/m2
22:29 38.9 °F 37.3 °F 30.10 in Calm     94% 0.08 in 0.00 W/m2
22:34 38.8 °F 37.2 °F 30.10 in Calm     94% 0.07 in 0.00 W/m2
22:39 38.8 °F 37.2 °F 30.11 in Calm     94% 0.06 in 0.00 W/m2
22:44 38.8 °F 37.2 °F 30.11 in Calm     94% 0.06 in 0.00 W/m2
22:49 38.8 °F 37.5 °F 30.11 in Calm     95% 0.05 in 0.00 W/m2
22:54 38.8 °F 37.2 °F 30.10 in Calm     94% 0.04 in 0.00 W/m2
22:59 38.8 °F 37.5 °F 30.10 in Calm     95% 0.04 in 0.00 W/m2
23:04 38.8 °F 37.5 °F 30.11 in Calm     95% 0.03 in 0.00 W/m2
23:09 38.8 °F 37.5 °F 30.10 in Calm     95% 0.03 in 0.00 W/m2
23:14 38.8 °F 37.5 °F 30.10 in Calm     95% 0.02 in 0.00 W/m2
23:19 38.7 °F 37.4 °F 30.10 in Calm     95% 0.02 in 0.00 W/m2
23:24 38.7 °F 37.4 °F 30.10 in Calm     95% 0.01 in 0.00 W/m2
23:29 38.6 °F 37.3 °F 30.10 in Calm     95% 0.01 in 0.00 W/m2
23:34 38.6 °F 37.3 °F 30.10 in Calm     95% 0.01 in 0.00 W/m2
23:39 38.7 °F 37.4 °F 30.10 in Calm     95% 0.01 in 0.00 W/m2
23:44 38.6 °F 37.3 °F 30.10 in Calm     95% 0.01 in 0.00 W/m2
23:49 38.6 °F 37.3 °F 30.10 in Calm     95% 0.01 in 0.00 W/m2
23:54 38.6 °F 37.3 °F 30.10 in Calm     95% 0.01 in 0.00 W/m2
23:59 38.7 °F 37.4 °F 30.10 in Calm     95% 0.01 in 0.00 W/m2
Bourbonnais, Illinois, USA
Compliments of Weather Underground - 4 mb